createdAt,value
2024-01-18T00:00:53.932Z,95783.59
2024-01-18T00:03:41.857Z,95781.54
2024-01-18T00:06:09.847Z,95786.50
2024-01-18T00:08:37.656Z,95783.17
2024-01-18T00:11:05.316Z,95786.80
2024-01-18T00:13:32.936Z,95791.21
2024-01-18T00:16:00.622Z,95795.89
2024-01-18T00:18:28.534Z,95791.35
2024-01-18T00:20:56.308Z,95790.77
2024-01-18T00:23:23.949Z,95799.47
2024-01-18T00:25:51.768Z,95799.14
2024-01-18T00:28:20.673Z,95802.17
2024-01-18T00:30:48.338Z,95798.95
2024-01-18T00:33:16.041Z,95803.81
2024-01-18T00:35:43.814Z,95811.23
2024-01-18T00:38:11.481Z,95809.06
2024-01-18T00:40:39.113Z,95795.23
2024-01-18T00:43:06.745Z,95793.73
2024-01-18T00:45:34.525Z,95793.14
2024-01-18T00:48:02.395Z,95802.90
2024-01-18T00:50:30.122Z,95800.85
2024-01-18T00:52:57.750Z,95803.38
2024-01-18T00:55:25.373Z,95805.98
2024-01-18T00:57:53.083Z,95798.08
2024-01-18T01:00:20.962Z,95798.66
2024-01-18T01:02:48.668Z,95788.95
2024-01-18T01:05:16.367Z,95788.39
2024-01-18T01:07:44.080Z,95789.23
2024-01-18T01:10:11.781Z,95782.38
2024-01-18T01:12:39.447Z,95780.98
2024-01-18T01:15:07.812Z,95786.78
2024-01-18T01:17:35.523Z,95789.81
2024-01-18T01:20:06.006Z,95788.35
2024-01-18T01:22:34.175Z,95799.10
2024-01-18T01:25:01.832Z,95796.27
2024-01-18T01:27:29.638Z,95788.58
2024-01-18T01:29:57.410Z,95782.25
2024-01-18T01:32:25.116Z,95784.02
2024-01-18T01:34:52.847Z,95782.76
2024-01-18T01:37:20.690Z,95794.20
2024-01-18T01:39:48.313Z,95791.91
2024-01-18T01:42:16.127Z,95789.64
2024-01-18T01:44:43.798Z,95787.30
2024-01-18T01:47:11.437Z,95783.85
2024-01-18T01:49:39.348Z,95789.09
2024-01-18T01:52:07.129Z,95783.36
2024-01-18T01:54:34.953Z,95779.58
2024-01-18T01:57:04.292Z,95777.61
2024-01-18T01:59:33.251Z,95770.97
2024-01-18T02:02:01.801Z,95766.79
2024-01-18T02:04:30.722Z,95765.45
2024-01-18T02:06:59.687Z,95759.77
2024-01-18T02:09:27.718Z,95750.29
2024-01-18T02:11:55.504Z,95745.12
2024-01-18T02:14:24.104Z,95753.60
2024-01-18T02:16:52.119Z,95756.19
2024-01-18T02:19:19.840Z,95752.81
2024-01-18T02:21:47.544Z,95755.55
2024-01-18T02:24:21.530Z,95755.65
2024-01-18T02:26:49.224Z,95751.05
2024-01-18T02:29:16.853Z,95752.10
2024-01-18T02:31:44.509Z,95758.71
2024-01-18T02:34:16.911Z,95758.09
2024-01-18T02:36:45.658Z,95756.45
2024-01-18T02:39:13.666Z,95749.39
2024-01-18T02:41:41.511Z,95756.67
2024-01-18T02:44:09.399Z,95762.23
2024-01-18T02:46:37.181Z,95761.21
2024-01-18T02:49:04.877Z,95761.67
2024-01-18T02:51:33.340Z,95760.26
2024-01-18T02:54:01.091Z,95762.42
2024-01-18T02:56:28.770Z,95756.73
2024-01-18T02:58:56.422Z,95756.18
2024-01-18T03:01:24.070Z,95754.95
2024-01-18T03:03:51.839Z,95757.56
2024-01-18T03:06:19.581Z,95760.11
2024-01-18T03:08:47.225Z,95760.66
2024-01-18T03:11:14.863Z,95761.07
2024-01-18T03:13:42.800Z,95751.94
2024-01-18T03:16:10.450Z,95749.55
2024-01-18T03:18:38.394Z,95748.21
2024-01-18T03:21:06.913Z,95742.92
2024-01-18T03:23:34.689Z,95743.66
2024-01-18T03:26:02.384Z,95741.31
2024-01-18T03:28:30.066Z,95745.36
2024-01-18T03:30:58.631Z,95755.83
2024-01-18T03:33:26.386Z,95760.05
2024-01-18T03:35:54.075Z,95768.73
2024-01-18T03:38:21.711Z,95775.42
2024-01-18T03:40:49.349Z,95782.52
2024-01-18T03:43:17.065Z,95785.30
2024-01-18T03:45:44.825Z,95787.86
2024-01-18T03:48:12.614Z,95791.45
2024-01-18T03:50:40.280Z,95795.73
2024-01-18T03:53:07.920Z,95800.07
2024-01-18T03:55:35.635Z,95802.17
2024-01-18T03:58:03.630Z,95807.98
2024-01-18T04:00:31.353Z,95812.60
2024-01-18T04:02:59.147Z,95815.23
2024-01-18T04:05:27.021Z,95817.85
2024-01-18T04:07:54.647Z,95818.46
2024-01-18T04:10:22.278Z,95821.97
2024-01-18T04:12:50.355Z,95818.95
2024-01-18T04:15:18.103Z,95812.91
2024-01-18T04:17:45.845Z,95813.31
2024-01-18T04:20:13.783Z,95810.58
2024-01-18T04:22:41.529Z,95809.84
2024-01-18T04:25:09.253Z,95811.98
2024-01-18T04:27:37.100Z,95813.53
2024-01-18T04:30:05.835Z,95808.60
2024-01-18T04:32:33.525Z,95805.11
2024-01-18T04:35:01.223Z,95801.11
2024-01-18T04:37:28.886Z,95791.56
2024-01-18T04:39:56.531Z,95790.98
2024-01-18T04:42:24.244Z,95791.02
2024-01-18T04:44:51.949Z,95803.00
2024-01-18T04:47:19.613Z,95804.14
2024-01-18T04:49:47.334Z,95812.64
2024-01-18T04:52:14.996Z,95818.36
2024-01-18T04:54:42.731Z,95825.89
2024-01-18T04:57:10.495Z,95822.13
2024-01-18T04:59:38.478Z,95826.23
2024-01-18T05:02:06.130Z,95828.26
2024-01-18T05:04:33.799Z,95827.98
2024-01-18T05:07:01.555Z,95831.79
2024-01-18T05:09:29.259Z,95831.77
2024-01-18T05:11:56.964Z,95830.79
2024-01-18T05:14:24.606Z,95836.74
2024-01-18T05:16:52.505Z,95839.50
2024-01-18T05:19:20.295Z,95837.94
2024-01-18T05:21:48.281Z,95836.76
2024-01-18T05:24:15.936Z,95838.58
2024-01-18T05:26:43.747Z,95840.98
2024-01-18T05:29:11.660Z,95844.73
2024-01-18T05:31:39.342Z,95846.96
2024-01-18T05:34:07.090Z,95852.73
2024-01-18T05:36:34.873Z,95856.77
2024-01-18T05:39:02.586Z,95859.55
2024-01-18T05:41:30.261Z,95857.88
2024-01-18T05:43:57.921Z,95865.90
2024-01-18T05:46:25.552Z,95865.59
2024-01-18T05:48:53.328Z,95870.89
2024-01-18T05:51:21.027Z,95871.64
2024-01-18T05:53:48.734Z,95874.23
2024-01-18T05:56:16.394Z,95868.34
2024-01-18T05:58:46.461Z,95868.75
2024-01-18T06:01:14.720Z,95870.39
2024-01-18T06:03:42.823Z,95869.69
2024-01-18T06:06:11.440Z,95874.77
2024-01-18T06:08:39.369Z,95880.53
2024-01-18T06:11:08.449Z,95882.41
2024-01-18T06:13:36.066Z,95890.89
2024-01-18T06:16:03.840Z,95887.84
2024-01-18T06:18:31.544Z,95889.60
2024-01-18T06:20:59.201Z,95898.29
2024-01-18T06:23:26.818Z,95903.66
2024-01-18T06:25:54.458Z,95904.73
2024-01-18T06:28:22.154Z,95908.31
2024-01-18T06:30:49.863Z,95905.71
2024-01-18T06:33:17.761Z,95908.90
2024-01-18T06:35:45.462Z,95909.12
2024-01-18T06:38:13.693Z,95910.39
2024-01-18T06:40:43.483Z,95913.39
2024-01-18T06:43:11.907Z,95914.76
2024-01-18T06:45:39.559Z,95915.97
2024-01-18T06:48:07.591Z,95922.10
2024-01-18T06:50:35.944Z,95922.29
2024-01-18T06:53:03.916Z,95918.61
2024-01-18T06:55:31.603Z,95926.39
2024-01-18T06:57:59.204Z,95926.60
2024-01-18T07:00:26.914Z,95926.77
2024-01-18T07:02:54.630Z,95920.66
2024-01-18T07:05:22.364Z,95924.98
2024-01-18T07:07:49.963Z,95930.66
2024-01-18T07:10:17.837Z,95932.30
2024-01-18T07:12:45.891Z,95937.44
2024-01-18T07:15:14.161Z,95941.23
2024-01-18T07:17:41.875Z,95943.36
2024-01-18T07:20:09.772Z,95944.88
2024-01-18T07:22:37.625Z,95950.79
2024-01-18T07:25:05.740Z,95949.45
2024-01-18T07:27:33.652Z,95955.61
2024-01-18T07:30:01.506Z,95959.98
2024-01-18T07:32:29.470Z,95961.91
2024-01-18T07:34:57.203Z,95960.29
2024-01-18T07:37:24.847Z,95963.30
2024-01-18T07:39:52.529Z,95964.44
2024-01-18T07:42:20.220Z,95961.27
2024-01-18T07:44:47.833Z,95967.42
2024-01-18T07:47:15.517Z,95968.58
2024-01-18T07:49:44.809Z,95968.95
2024-01-18T07:52:14.734Z,95974.84
2024-01-18T07:54:42.561Z,95983.30
2024-01-18T07:57:10.441Z,95985.44
2024-01-18T07:59:38.225Z,95985.45
2024-01-18T08:02:05.973Z,95988.82
2024-01-18T08:04:33.840Z,95988.63
2024-01-18T08:07:01.635Z,95990.04
2024-01-18T08:09:29.708Z,95993.83
2024-01-18T08:11:57.390Z,95998.98
2024-01-18T08:14:25.028Z,96000.34
2024-01-18T08:16:52.688Z,96008.27
2024-01-18T08:19:20.407Z,96005.36
2024-01-18T08:21:48.180Z,96009.02
2024-01-18T08:24:15.854Z,96012.95
2024-01-18T08:26:43.515Z,96019.77
2024-01-18T08:29:11.293Z,96017.46
2024-01-18T08:31:39.038Z,96030.27
2024-01-18T08:34:06.769Z,96031.24
2024-01-18T08:36:34.521Z,96041.36
2024-01-18T08:39:02.173Z,96042.71
2024-01-18T08:41:29.849Z,96043.88
2024-01-18T08:43:57.510Z,96049.30
2024-01-18T08:46:25.241Z,96050.73
2024-01-18T08:48:53.388Z,96053.50
2024-01-18T08:51:21.251Z,96060.71
2024-01-18T08:53:48.970Z,96065.92
2024-01-18T08:56:18.937Z,96074.75
2024-01-18T08:58:48.150Z,96078.58
2024-01-18T09:01:15.886Z,96085.79
2024-01-18T09:03:43.681Z,96085.38
2024-01-18T09:06:11.493Z,96092.73
2024-01-18T09:08:39.246Z,96103.53
2024-01-18T09:11:06.951Z,96105.55
2024-01-18T09:13:34.633Z,96112.48
2024-01-18T09:16:02.424Z,96118.16
2024-01-18T09:18:30.245Z,96122.88
2024-01-18T09:20:58.036Z,96131.29
2024-01-18T09:23:25.656Z,96134.67
2024-01-18T09:25:53.313Z,96135.57
2024-01-18T09:28:20.977Z,96137.67
2024-01-18T09:30:48.692Z,96142.60
2024-01-18T09:33:16.471Z,96144.32
2024-01-18T09:35:44.232Z,96138.70
2024-01-18T09:38:12.376Z,96144.91
2024-01-18T09:40:40.202Z,96145.79
2024-01-18T09:43:09.419Z,96144.04
2024-01-18T09:45:41.162Z,96148.31
2024-01-18T09:48:09.341Z,96145.64
2024-01-18T09:50:43.798Z,96147.36
2024-01-18T09:53:12.665Z,96153.02
2024-01-18T09:55:40.471Z,96152.11
2024-01-18T09:58:12.983Z,96149.87
2024-01-18T10:00:43.971Z,96150.03
2024-01-18T10:03:12.056Z,96149.64
2024-01-18T10:05:42.782Z,96147.13
2024-01-18T10:08:10.785Z,96154.73
2024-01-18T10:10:38.939Z,96152.21
2024-01-18T10:13:07.036Z,96149.88
2024-01-18T10:15:35.200Z,96148.27
2024-01-18T10:18:06.718Z,96156.21
2024-01-18T10:20:34.874Z,96152.48
2024-01-18T10:23:04.244Z,96162.37
2024-01-18T10:25:32.772Z,96164.44
2024-01-18T10:28:00.511Z,96164.44
2024-01-18T10:30:28.276Z,96166.34
2024-01-18T10:32:55.980Z,96166.60
2024-01-18T10:35:25.493Z,96173.26
2024-01-18T10:38:04.655Z,96171.68
2024-01-18T10:40:35.131Z,96172.08
2024-01-18T10:43:03.787Z,96171.04
2024-01-18T10:45:32.526Z,96167.98
2024-01-18T10:48:00.835Z,96171.31
2024-01-18T10:50:31.326Z,96169.13
2024-01-18T10:52:58.906Z,96166.69
2024-01-18T10:55:26.620Z,96161.59
2024-01-18T10:57:54.334Z,96160.30
2024-01-18T11:00:22.035Z,96161.30
2024-01-18T11:02:50.564Z,96163.63
2024-01-18T11:05:19.617Z,96167.90
2024-01-18T11:07:47.854Z,96166.77
2024-01-18T11:10:15.576Z,96155.58
2024-01-18T11:12:46.560Z,96152.92
2024-01-18T11:15:15.506Z,96152.18
2024-01-18T11:17:53.020Z,96161.28
2024-01-18T11:20:20.878Z,96169.58
2024-01-18T11:22:48.648Z,96168.09
2024-01-18T11:25:23.081Z,96164.27
2024-01-18T11:27:50.863Z,96170.54
2024-01-18T11:30:37.541Z,96170.86
2024-01-18T11:33:08.461Z,96174.90
2024-01-18T11:35:36.971Z,96180.13
2024-01-18T11:38:22.018Z,96180.27
2024-01-18T11:41:14.064Z,96183.79
2024-01-18T11:43:54.644Z,96182.81
2024-01-18T11:46:38.528Z,96182.45
2024-01-18T11:49:07.646Z,96180.66
2024-01-18T11:51:36.432Z,96172.71
2024-01-18T11:54:05.595Z,96173.23
2024-01-18T11:56:36.775Z,96165.52
2024-01-18T11:59:05.760Z,96161.08
2024-01-18T12:01:33.957Z,96165.10
2024-01-18T12:04:01.862Z,96165.20
2024-01-18T12:06:30.298Z,96168.13
2024-01-18T12:08:58.296Z,96167.40
2024-01-18T12:11:26.471Z,96166.02
2024-01-18T12:13:54.155Z,96168.34
2024-01-18T12:16:23.095Z,96174.62
2024-01-18T12:18:54.516Z,96178.38
2024-01-18T12:21:23.479Z,96188.20
2024-01-18T12:23:51.527Z,96188.15
2024-01-18T12:26:19.265Z,96190.02
2024-01-18T12:28:47.043Z,96189.20
2024-01-18T12:31:14.847Z,96183.12
2024-01-18T12:33:42.661Z,96179.67
2024-01-18T12:36:10.845Z,96178.34
2024-01-18T12:38:38.682Z,96177.08
2024-01-18T12:41:06.525Z,96178.98
2024-01-18T12:43:34.402Z,96181.20
2024-01-18T12:46:02.336Z,96178.66
2024-01-18T12:48:30.198Z,96180.80
2024-01-18T12:50:58.009Z,96178.67
2024-01-18T12:53:25.767Z,96182.45
2024-01-18T12:55:53.443Z,96188.04
2024-01-18T12:58:23.576Z,96191.51
2024-01-18T13:00:51.471Z,96192.55
2024-01-18T13:03:21.715Z,96188.86
2024-01-18T13:05:49.875Z,96187.20
2024-01-18T13:08:18.096Z,96183.72
2024-01-18T13:10:47.114Z,96182.38
2024-01-18T13:13:15.783Z,96184.15
2024-01-18T13:15:45.039Z,96185.40
2024-01-18T13:18:13.860Z,96193.41
2024-01-18T13:20:44.941Z,96191.70
2024-01-18T13:23:13.751Z,96196.70
2024-01-18T13:25:41.489Z,96204.95
2024-01-18T13:28:09.280Z,96200.94
2024-01-18T13:30:37.079Z,96193.99
2024-01-18T13:33:07.978Z,96191.82
2024-01-18T13:35:37.614Z,96198.91
2024-01-18T13:38:05.283Z,96201.30
2024-01-18T13:40:32.993Z,96205.33
2024-01-18T13:43:00.750Z,96211.26
2024-01-18T13:45:28.427Z,96206.39
2024-01-18T13:47:56.195Z,96209.35
2024-01-18T13:50:23.818Z,96207.03
2024-01-18T13:52:51.516Z,96206.06
2024-01-18T13:55:19.236Z,96208.62
2024-01-18T13:57:47.024Z,96214.65
2024-01-18T14:00:15.285Z,96216.83
2024-01-18T14:02:42.964Z,96214.96
2024-01-18T14:05:10.791Z,96214.08
2024-01-18T14:07:38.755Z,96225.73
2024-01-18T14:10:06.958Z,96226.30
2024-01-18T14:12:34.791Z,96215.15
2024-01-18T14:15:02.524Z,96207.77
2024-01-18T14:17:31.249Z,96217.13
2024-01-18T14:20:00.362Z,96223.11
2024-01-18T14:22:28.290Z,96221.87
2024-01-18T14:24:56.023Z,96227.00
2024-01-18T14:27:23.756Z,96229.80
2024-01-18T14:29:51.465Z,96229.05
2024-01-18T14:32:19.164Z,96237.41
2024-01-18T14:34:46.955Z,96239.24
2024-01-18T14:37:15.066Z,96242.59
2024-01-18T14:39:42.781Z,96245.39
2024-01-18T14:42:10.463Z,96247.63
2024-01-18T14:44:38.555Z,96255.62
2024-01-18T14:47:07.063Z,96246.89
2024-01-18T14:49:34.890Z,96248.39
2024-01-18T14:52:02.701Z,96254.46
2024-01-18T14:54:30.365Z,96248.73
2024-01-18T14:56:58.098Z,96249.17
2024-01-18T14:59:25.784Z,96246.91
2024-01-18T15:01:53.531Z,96255.98
2024-01-18T15:04:21.319Z,96259.80
2024-01-18T15:06:49.121Z,96264.95
2024-01-18T15:09:16.856Z,96269.17
2024-01-18T15:11:44.503Z,96277.29
2024-01-18T15:14:12.335Z,96271.71
2024-01-18T15:16:39.976Z,96273.51
2024-01-18T15:19:14.292Z,96275.66
2024-01-18T15:21:46.434Z,96273.73
2024-01-18T15:24:15.522Z,96284.77
2024-01-18T15:26:43.305Z,96283.39
2024-01-18T15:29:11.075Z,96277.80
2024-01-18T15:31:38.891Z,96279.38
2024-01-18T15:34:06.971Z,96281.02
2024-01-18T15:36:39.625Z,96283.95
2024-01-18T15:39:07.535Z,96289.09
2024-01-18T15:41:35.793Z,96299.13
2024-01-18T15:44:03.516Z,96312.85
2024-01-18T15:46:31.184Z,96313.95
2024-01-18T15:48:59.235Z,96313.02
2024-01-18T15:51:27.494Z,96311.06
2024-01-18T15:53:55.204Z,96316.02
2024-01-18T15:56:22.845Z,96313.73
2024-01-18T15:58:50.485Z,96309.90
2024-01-18T16:01:19.449Z,96299.04
2024-01-18T16:03:47.286Z,96295.10
2024-01-18T16:06:15.106Z,96301.54
2024-01-18T16:08:42.851Z,96299.06
2024-01-18T16:11:11.358Z,96302.84
2024-01-18T16:13:39.141Z,96310.84
2024-01-18T16:16:06.945Z,96317.44
2024-01-18T16:18:35.012Z,96318.88
2024-01-18T16:21:02.846Z,96324.04
2024-01-18T16:23:30.476Z,96337.70
2024-01-18T16:26:00.658Z,96347.86
2024-01-18T16:28:28.295Z,96347.95
2024-01-18T16:30:56.274Z,96364.66
2024-01-18T16:33:23.959Z,96381.56
2024-01-18T16:35:51.774Z,96384.71
2024-01-18T16:38:19.485Z,96382.30
2024-01-18T16:40:47.188Z,96385.50
2024-01-18T16:43:14.801Z,96386.16
2024-01-18T16:45:42.512Z,96390.48
2024-01-18T16:48:10.342Z,96398.46
2024-01-18T16:50:38.220Z,96400.79
2024-01-18T16:53:05.912Z,96401.39
2024-01-18T16:55:33.582Z,96400.32
2024-01-18T16:58:01.340Z,96408.92
2024-01-18T17:00:29.051Z,96412.56
2024-01-18T17:02:56.726Z,96416.66
2024-01-18T17:05:24.745Z,96420.41
2024-01-18T17:07:52.436Z,96421.45
2024-01-18T17:10:20.069Z,96431.13
2024-01-18T17:12:47.699Z,96440.10
2024-01-18T17:15:15.364Z,96450.02
2024-01-18T17:17:43.035Z,96456.27
2024-01-18T17:20:11.110Z,96469.59
2024-01-18T17:22:38.888Z,96474.14
2024-01-18T17:25:07.720Z,96472.64
2024-01-18T17:27:36.419Z,96467.99
2024-01-18T17:30:04.352Z,96471.04
2024-01-18T17:32:32.059Z,96472.90
2024-01-18T17:34:59.878Z,96480.45
2024-01-18T17:37:27.536Z,96481.49
2024-01-18T17:39:55.346Z,96488.92
2024-01-18T17:42:23.001Z,96502.39
2024-01-18T17:44:50.644Z,96514.84
2024-01-18T17:47:20.535Z,96524.90
2024-01-18T17:49:48.604Z,96528.64
2024-01-18T17:52:16.383Z,96531.55
2024-01-18T17:54:44.024Z,96543.51
2024-01-18T17:57:11.727Z,96550.40
2024-01-18T17:59:39.418Z,96557.13
2024-01-18T18:02:07.213Z,96557.39
2024-01-18T18:04:34.885Z,96560.81
2024-01-18T18:07:02.502Z,96563.89
2024-01-18T18:09:30.165Z,96568.11
2024-01-18T18:11:57.806Z,96570.86
2024-01-18T18:14:25.730Z,96578.51
2024-01-18T18:16:53.978Z,96589.02
2024-01-18T18:19:21.713Z,96598.52
2024-01-18T18:21:49.465Z,96615.04
2024-01-18T18:24:17.096Z,96621.99
2024-01-18T18:26:44.782Z,96627.30
2024-01-18T18:29:12.527Z,96641.52
2024-01-18T18:31:40.275Z,96643.52
2024-01-18T18:34:16.444Z,96651.90
2024-01-18T18:36:51.194Z,96659.33
2024-01-18T18:39:19.058Z,96667.83
2024-01-18T18:41:46.855Z,96664.67
2024-01-18T18:44:14.563Z,96672.88
2024-01-18T18:46:42.219Z,96673.35
2024-01-18T18:49:09.868Z,96688.02
2024-01-18T18:51:37.685Z,96696.19
2024-01-18T18:54:05.401Z,96704.35
2024-01-18T18:56:33.093Z,96707.31
2024-01-18T18:59:00.789Z,96710.45
2024-01-18T19:01:29.851Z,96715.77
2024-01-18T19:03:57.666Z,96720.05
2024-01-18T19:06:25.326Z,96726.53
2024-01-18T19:08:55.217Z,96734.85
2024-01-18T19:11:25.306Z,96739.81
2024-01-18T19:13:53.303Z,96750.46
2024-01-18T19:16:20.915Z,96753.88
2024-01-18T19:18:48.712Z,96761.65
2024-01-18T19:21:16.402Z,96764.73
2024-01-18T19:23:44.293Z,96768.62
2024-01-18T19:26:13.240Z,96774.52
2024-01-18T19:28:42.718Z,96773.09
2024-01-18T19:31:10.381Z,96778.16
2024-01-18T19:33:38.531Z,96785.45
2024-01-18T19:36:06.560Z,96800.06
2024-01-18T19:38:34.323Z,96805.75
2024-01-18T19:41:01.963Z,96814.17
2024-01-18T19:43:29.616Z,96819.77
2024-01-18T19:45:57.312Z,96827.39
2024-01-18T19:48:26.030Z,96836.06
2024-01-18T19:50:54.300Z,96841.00
2024-01-18T19:53:22.131Z,96851.98
2024-01-18T19:55:49.769Z,96859.98
2024-01-18T19:58:17.720Z,96864.44
2024-01-18T20:00:45.392Z,96871.92
2024-01-18T20:03:13.136Z,96876.86
2024-01-18T20:05:41.069Z,96882.45
2024-01-18T20:08:08.834Z,96889.23
2024-01-18T20:10:36.751Z,96898.67
2024-01-18T20:13:04.546Z,96911.12
2024-01-18T20:15:32.249Z,96920.39
2024-01-18T20:18:02.212Z,96930.30
2024-01-18T20:20:30.067Z,96945.38
2024-01-18T20:23:00.237Z,96960.64
2024-01-18T20:25:28.072Z,96960.67
2024-01-18T20:27:55.880Z,96965.23
2024-01-18T20:30:23.789Z,96972.08
2024-01-18T20:32:52.662Z,96975.47
2024-01-18T20:35:20.418Z,96975.84
2024-01-18T20:37:48.433Z,96980.89
2024-01-18T20:40:16.260Z,96985.78
2024-01-18T20:42:45.514Z,96992.35
2024-01-18T20:45:13.202Z,96998.39
2024-01-18T20:47:40.926Z,97008.45
2024-01-18T20:50:08.963Z,97014.70
2024-01-18T20:52:36.786Z,97021.26
2024-01-18T20:55:04.818Z,97040.70
2024-01-18T20:57:34.691Z,97044.40
2024-01-18T21:00:02.350Z,97050.91
2024-01-18T21:02:30.037Z,97055.61
2024-01-18T21:04:57.751Z,97059.48
2024-01-18T21:07:25.445Z,97063.98
2024-01-18T21:09:53.124Z,97064.97
2024-01-18T21:12:20.755Z,97067.63
2024-01-18T21:14:48.534Z,97072.64
2024-01-18T21:17:19.143Z,97070.77
2024-01-18T21:19:46.817Z,97069.92
2024-01-18T21:22:14.487Z,97069.90
2024-01-18T21:24:42.200Z,97079.45
2024-01-18T21:27:09.819Z,97093.30
2024-01-18T21:29:37.709Z,97095.48
2024-01-18T21:32:10.572Z,97104.17
2024-01-18T21:34:38.489Z,97116.71
2024-01-18T21:37:06.168Z,97133.11
2024-01-18T21:39:33.926Z,97137.77
2024-01-18T21:42:01.622Z,97149.96
2024-01-18T21:44:29.354Z,97156.81
2024-01-18T21:46:57.169Z,97165.50
2024-01-18T21:49:24.945Z,97173.34
2024-01-18T21:51:52.662Z,97185.55
2024-01-18T21:54:20.306Z,97186.70
2024-01-18T21:56:48.054Z,97187.38
2024-01-18T21:59:21.820Z,97191.55
2024-01-18T22:01:56.472Z,97198.41
2024-01-18T22:04:24.270Z,97208.30
2024-01-18T22:06:51.979Z,97215.84
2024-01-18T22:09:27.472Z,97225.73
2024-01-18T22:12:01.501Z,97233.61
2024-01-18T22:14:29.154Z,97232.30
2024-01-18T22:16:56.774Z,97232.32
2024-01-18T22:19:39.387Z,97240.89
2024-01-18T22:22:12.211Z,97238.55
2024-01-18T22:24:39.887Z,97240.44
2024-01-18T22:27:07.505Z,97250.01
2024-01-18T22:29:35.164Z,97260.73
2024-01-18T22:32:02.901Z,97260.10
2024-01-18T22:34:30.588Z,97272.33
2024-01-18T22:36:58.312Z,97279.88
2024-01-18T22:39:27.212Z,97286.08
2024-01-18T22:41:54.911Z,97297.15
2024-01-18T22:44:22.599Z,97303.50
2024-01-18T22:46:50.280Z,97304.35
2024-01-18T22:49:18.098Z,97316.42
2024-01-18T22:51:45.807Z,97320.59
2024-01-18T22:54:13.403Z,97318.55
2024-01-18T22:56:41.244Z,97325.58
2024-01-18T22:59:09.219Z,97333.09
2024-01-18T23:01:36.839Z,97346.48
2024-01-18T23:04:04.673Z,97342.96
2024-01-18T23:06:32.399Z,97344.47
2024-01-18T23:09:00.829Z,97354.00
2024-01-18T23:11:28.580Z,97362.73
2024-01-18T23:13:56.222Z,97374.29
2024-01-18T23:16:23.871Z,97378.16
2024-01-18T23:18:51.552Z,97386.52
2024-01-18T23:21:19.256Z,97386.36
2024-01-18T23:23:46.954Z,97386.36
2024-01-18T23:26:14.693Z,97394.91
2024-01-18T23:28:42.333Z,97399.27
2024-01-18T23:31:10.134Z,97401.30
2024-01-18T23:33:38.011Z,97401.85
2024-01-18T23:36:06.098Z,97401.70
2024-01-18T23:38:33.741Z,97404.91
2024-01-18T23:41:01.434Z,97402.61
2024-01-18T23:43:29.052Z,97411.48
2024-01-18T23:45:56.668Z,97411.51
2024-01-18T23:48:24.334Z,97419.40
2024-01-18T23:50:52.097Z,97424.96
2024-01-18T23:53:19.875Z,97433.02
2024-01-18T23:55:47.519Z,97437.02
2024-01-18T23:58:15.144Z,97441.41
